Terminal Aerodrome Forecast
Issued by NWS

Home | Current Version | Previous Version | Text Only | Print | Product List | Glossary On
Versions: 1 2 3 4 5 6 7 8 9 10 11 12 13 14 15
000
FTUS46 KMTR 201727
TAFSJC
TAF
KSJC 201727Z 2018/2118 28007KT P6SM FEW012 FEW250
     FM202000 30011KT P6SM FEW250
     FM210900 VRB04KT P6SM BKN015
     FM211700 30003KT P6SM FEW015=

USA.gov is the U.S. government's official web portal to all federal, state and local government web resources and services.